createdAt,value
2019-02-25T00:01:17.610Z,11.15
2019-02-25T00:02:52.073Z,10.45
2019-02-25T00:04:27.041Z,11.28
2019-02-25T00:06:01.912Z,10.10
2019-02-25T00:07:36.575Z,10.30
2019-02-25T00:09:11.268Z,10.90
2019-02-25T00:10:45.670Z,10.82
2019-02-25T00:12:20.475Z,12.05
2019-02-25T00:13:54.869Z,10.90
2019-02-25T00:15:30.094Z,10.88
2019-02-25T00:17:04.842Z,11.40
2019-02-25T00:18:39.782Z,10.95
2019-02-25T00:20:14.634Z,11.75
2019-02-25T00:21:49.014Z,10.50
2019-02-25T00:23:23.393Z,11.22
2019-02-25T00:24:58.028Z,11.10
2019-02-25T00:26:32.808Z,9.98
2019-02-25T00:28:07.201Z,10.72
2019-02-25T00:29:41.593Z,9.58
2019-02-25T00:31:15.973Z,10.18
2019-02-25T00:32:50.616Z,9.08
2019-02-25T00:34:24.985Z,10.13
2019-02-25T00:35:59.383Z,9.28
2019-02-25T00:37:34.371Z,9.75
2019-02-25T00:39:09.717Z,9.28
2019-02-25T00:40:44.439Z,9.20
2019-02-25T00:42:18.959Z,8.78
2019-02-25T00:43:53.334Z,9.45
2019-02-25T00:45:27.727Z,9.13
2019-02-25T00:47:02.371Z,9.55
2019-02-25T00:48:36.819Z,9.03
2019-02-25T00:50:12.366Z,9.00
2019-02-25T00:51:46.755Z,9.23
2019-02-25T00:53:21.144Z,9.53
2019-02-25T00:54:56.197Z,9.55
2019-02-25T00:56:30.598Z,9.38
2019-02-25T00:58:05.372Z,8.58
2019-02-25T00:59:40.457Z,8.30
2019-02-25T01:01:15.002Z,8.30
2019-02-25T01:02:49.477Z,9.10
2019-02-25T01:04:23.926Z,8.23
2019-02-25T01:05:59.140Z,8.25
2019-02-25T01:07:33.611Z,9.23
2019-02-25T01:09:08.381Z,8.95
2019-02-25T01:10:43.109Z,8.80
2019-02-25T01:12:17.697Z,8.98
2019-02-25T01:13:52.432Z,8.45
2019-02-25T01:15:26.814Z,7.85
2019-02-25T01:17:01.273Z,8.70
2019-02-25T01:18:36.033Z,8.28
2019-02-25T01:20:10.902Z,8.28
2019-02-25T01:21:45.292Z,8.28
2019-02-25T01:23:19.941Z,7.97
2019-02-25T01:24:54.705Z,8.00
2019-02-25T01:26:29.074Z,8.20
2019-02-25T01:28:03.525Z,7.97
2019-02-25T01:29:38.192Z,8.00
2019-02-25T01:31:13.337Z,7.83
2019-02-25T01:32:48.146Z,7.58
2019-02-25T01:34:22.537Z,7.75
2019-02-25T01:35:56.913Z,8.33
2019-02-25T01:37:31.402Z,7.50
2019-02-25T01:39:07.223Z,8.30
2019-02-25T01:40:41.866Z,8.55
2019-02-25T01:42:16.611Z,7.72
2019-02-25T01:43:51.099Z,8.13
2019-02-25T01:45:25.742Z,7.22
2019-02-25T01:47:00.442Z,7.80
2019-02-25T01:48:34.898Z,7.62
2019-02-25T01:50:09.983Z,8.38
2019-02-25T01:51:44.703Z,7.55
2019-02-25T01:53:19.165Z,7.53
2019-02-25T01:54:53.845Z,7.95
2019-02-25T01:56:28.226Z,7.72
2019-02-25T01:58:02.865Z,7.40
2019-02-25T01:59:37.268Z,6.92
2019-02-25T02:01:12.003Z,7.25
2019-02-25T02:02:46.741Z,7.12
2019-02-25T02:04:21.711Z,7.20
2019-02-25T02:05:56.171Z,7.12
2019-02-25T02:07:30.897Z,7.17
2019-02-25T02:09:07.670Z,7.10
2019-02-25T02:10:42.380Z,7.40
2019-02-25T02:12:17.099Z,7.10
2019-02-25T02:13:51.486Z,7.45
2019-02-25T02:15:25.948Z,7.35
2019-02-25T02:17:00.756Z,6.67
2019-02-25T02:18:35.311Z,7.08
2019-02-25T02:20:11.236Z,6.50
2019-02-25T02:21:46.243Z,6.50
2019-02-25T02:23:20.651Z,7.25
2019-02-25T02:24:55.377Z,6.05
2019-02-25T02:26:30.102Z,7.12
2019-02-25T02:28:04.635Z,7.12
2019-02-25T02:29:39.607Z,7.03
2019-02-25T02:31:14.064Z,7.15
2019-02-25T02:32:49.007Z,6.62
2019-02-25T02:34:24.115Z,6.87
2019-02-25T02:35:58.831Z,7.10
2019-02-25T02:37:33.557Z,7.00
2019-02-25T02:39:08.533Z,6.83
2019-02-25T02:40:42.985Z,7.65
2019-02-25T02:42:21.646Z,6.83
2019-02-25T02:43:56.046Z,7.20
2019-02-25T02:45:40.126Z,7.30
2019-02-25T02:47:41.393Z,7.00
2019-02-25T02:49:15.858Z,7.47
2019-02-25T02:50:50.269Z,6.55
2019-02-25T02:52:24.950Z,6.83
2019-02-25T02:53:59.426Z,7.12
2019-02-25T02:55:33.923Z,6.83
2019-02-25T02:57:08.282Z,6.62
2019-02-25T02:58:42.658Z,6.53
2019-02-25T03:00:18.512Z,7.17
2019-02-25T03:01:52.925Z,6.80
2019-02-25T03:03:27.307Z,6.85
2019-02-25T03:05:03.361Z,6.95
2019-02-25T03:06:38.000Z,6.58
2019-02-25T03:08:12.417Z,6.70
2019-02-25T03:09:46.917Z,6.47
2019-02-25T03:11:21.364Z,6.47
2019-02-25T03:12:55.852Z,6.95
2019-02-25T03:14:30.688Z,6.92
2019-02-25T03:16:05.062Z,7.08
2019-02-25T03:17:39.493Z,7.90
2019-02-25T03:19:14.293Z,6.28
2019-02-25T03:20:48.960Z,7.00
2019-02-25T03:22:23.926Z,6.65
2019-02-25T03:23:58.300Z,7.45
2019-02-25T03:25:32.955Z,6.80
2019-02-25T03:27:07.624Z,6.80
2019-02-25T03:28:42.227Z,6.40
2019-02-25T03:30:18.313Z,6.75
2019-02-25T03:31:53.066Z,7.05
2019-02-25T03:33:27.750Z,6.83
2019-02-25T03:35:02.514Z,6.30
2019-02-25T03:36:36.888Z,7.08
2019-02-25T03:38:11.670Z,7.40
2019-02-25T03:39:46.925Z,7.08
2019-02-25T03:41:21.598Z,7.53
2019-02-25T03:42:56.249Z,7.62
2019-02-25T03:44:30.993Z,7.20
2019-02-25T03:46:05.365Z,7.45
2019-02-25T03:47:39.762Z,7.00
2019-02-25T03:49:14.213Z,7.47
2019-02-25T03:50:48.602Z,6.35
2019-02-25T03:52:23.305Z,6.35
2019-02-25T03:53:57.713Z,7.45
2019-02-25T03:55:32.083Z,6.90
2019-02-25T03:57:06.558Z,6.67
2019-02-25T03:58:41.250Z,6.95
2019-02-25T04:00:19.338Z,6.42
2019-02-25T04:01:53.794Z,6.00
2019-02-25T04:03:28.926Z,6.78
2019-02-25T04:05:04.255Z,5.45
2019-02-25T04:06:38.703Z,5.80
2019-02-25T04:08:13.070Z,6.37
2019-02-25T04:09:47.857Z,6.00
2019-02-25T04:11:22.304Z,6.47
2019-02-25T04:12:56.677Z,6.78
2019-02-25T04:14:31.664Z,7.80
2019-02-25T04:16:06.067Z,6.92
2019-02-25T04:17:40.807Z,6.70
2019-02-25T04:19:15.181Z,7.70
2019-02-25T04:20:49.567Z,7.37
2019-02-25T04:22:23.982Z,7.45
2019-02-25T04:23:58.347Z,6.87
2019-02-25T04:25:32.728Z,7.17
2019-02-25T04:27:07.105Z,7.22
2019-02-25T04:28:41.487Z,7.20
2019-02-25T04:30:16.190Z,8.18
2019-02-25T04:31:50.554Z,6.75
2019-02-25T04:33:25.224Z,6.35
2019-02-25T04:35:01.600Z,7.12
2019-02-25T04:36:36.017Z,6.67
2019-02-25T04:38:11.029Z,6.10
2019-02-25T04:39:45.760Z,6.60
2019-02-25T04:41:20.218Z,6.30
2019-02-25T04:42:54.599Z,6.78
2019-02-25T04:44:29.400Z,5.67
2019-02-25T04:46:03.804Z,6.75
2019-02-25T04:47:38.171Z,5.37
2019-02-25T04:49:12.950Z,6.25
2019-02-25T04:50:47.364Z,5.92
2019-02-25T04:52:22.086Z,5.20
2019-02-25T04:53:56.789Z,5.20
2019-02-25T04:55:31.426Z,5.92
2019-02-25T04:57:06.261Z,5.67
2019-02-25T04:58:40.713Z,6.25
2019-02-25T05:00:16.469Z,6.17
2019-02-25T05:01:51.233Z,5.67
2019-02-25T05:03:25.620Z,6.50
2019-02-25T05:05:00.005Z,6.40
2019-02-25T05:06:34.769Z,6.58
2019-02-25T05:08:09.498Z,6.25
2019-02-25T05:09:44.586Z,8.25
2019-02-25T05:11:18.957Z,7.40
2019-02-25T05:13:01.031Z,6.85
2019-02-25T05:14:35.398Z,6.60
2019-02-25T05:16:10.165Z,7.10
2019-02-25T05:17:44.547Z,7.17
2019-02-25T05:19:18.989Z,8.88
2019-02-25T05:20:53.353Z,8.58
2019-02-25T05:22:27.744Z,8.10
2019-02-25T05:24:02.558Z,8.40
2019-02-25T05:25:37.270Z,7.87
2019-02-25T05:27:12.013Z,7.50
2019-02-25T05:28:46.966Z,7.05
2019-02-25T05:30:21.349Z,7.55
2019-02-25T05:31:56.026Z,7.40
2019-02-25T05:33:30.701Z,7.50
2019-02-25T05:35:05.593Z,7.40
2019-02-25T05:36:40.540Z,6.95
2019-02-25T05:38:15.238Z,8.23
2019-02-25T05:39:49.608Z,7.40
2019-02-25T05:41:23.975Z,7.05
2019-02-25T05:42:58.341Z,6.97
2019-02-25T05:44:32.726Z,7.00
2019-02-25T05:46:07.095Z,7.12
2019-02-25T05:47:41.560Z,7.12
2019-02-25T05:49:15.933Z,7.08
2019-02-25T05:50:50.334Z,6.90
2019-02-25T05:52:29.142Z,7.33
2019-02-25T05:54:04.010Z,6.90
2019-02-25T05:55:38.709Z,6.47
2019-02-25T05:57:13.165Z,5.78
2019-02-25T05:58:48.135Z,5.78
2019-02-25T06:00:25.041Z,5.78
2019-02-25T06:01:59.413Z,6.78
2019-02-25T06:03:34.146Z,6.08
2019-02-25T06:05:08.774Z,5.62
2019-02-25T06:06:43.140Z,5.87
2019-02-25T06:08:17.897Z,6.08
2019-02-25T06:09:52.273Z,6.00
2019-02-25T06:11:26.634Z,7.22
2019-02-25T06:13:01.343Z,8.50
2019-02-25T06:14:35.913Z,8.03
2019-02-25T06:16:10.578Z,8.78
2019-02-25T06:17:45.298Z,9.25
2019-02-25T06:19:20.010Z,9.78
2019-02-25T06:20:54.417Z,8.93
2019-02-25T06:22:29.145Z,9.08
2019-02-25T06:24:03.518Z,8.73
2019-02-25T06:25:37.887Z,9.38
2019-02-25T06:27:12.293Z,9.15
2019-02-25T06:28:46.676Z,9.13
2019-02-25T06:30:21.319Z,9.98
2019-02-25T06:31:55.689Z,8.70
2019-02-25T06:33:30.114Z,9.53
2019-02-25T06:35:05.575Z,9.05
2019-02-25T06:36:40.312Z,8.55
2019-02-25T06:38:14.678Z,7.97
2019-02-25T06:39:49.075Z,8.50
2019-02-25T06:41:23.846Z,8.35
2019-02-25T06:42:58.580Z,7.58
2019-02-25T06:44:33.302Z,7.45
2019-02-25T06:46:07.686Z,7.55
2019-02-25T06:47:42.052Z,7.78
2019-02-25T06:49:16.462Z,7.05
2019-02-25T06:50:50.846Z,6.67
2019-02-25T06:52:25.310Z,7.25
2019-02-25T06:53:59.982Z,6.40
2019-02-25T06:55:34.410Z,6.50
2019-02-25T06:57:08.818Z,5.72
2019-02-25T06:58:43.541Z,6.50
2019-02-25T07:00:18.775Z,6.58
2019-02-25T07:01:53.370Z,7.53
2019-02-25T07:03:28.107Z,6.70
2019-02-25T07:05:20.710Z,7.90
2019-02-25T07:07:00.097Z,7.05
2019-02-25T07:08:42.161Z,7.30
2019-02-25T07:10:41.485Z,6.75
2019-02-25T07:12:24.010Z,6.90
2019-02-25T07:14:16.149Z,7.30
2019-02-25T07:16:08.528Z,7.15
2019-02-25T07:17:50.855Z,7.40
2019-02-25T07:19:54.025Z,8.53
2019-02-25T07:21:53.217Z,7.33
2019-02-25T07:23:43.748Z,7.05
2019-02-25T07:25:36.454Z,7.83
2019-02-25T07:27:25.221Z,7.95
2019-02-25T07:29:12.410Z,7.78
2019-02-25T07:31:24.310Z,6.83
2019-02-25T07:33:17.052Z,6.40
2019-02-25T07:35:12.369Z,6.92
2019-02-25T07:37:02.622Z,7.60
2019-02-25T07:39:14.516Z,7.20
2019-02-25T07:40:57.050Z,7.40
2019-02-25T07:42:49.055Z,7.08
2019-02-25T07:44:29.194Z,7.28
2019-02-25T07:46:25.941Z,7.28
2019-02-25T07:48:06.098Z,6.83
2019-02-25T07:49:58.848Z,7.60
2019-02-25T07:51:52.594Z,10.10
2019-02-25T07:53:46.067Z,8.90
2019-02-25T07:55:45.514Z,8.68
2019-02-25T07:57:41.911Z,8.25
2019-02-25T07:59:23.178Z,8.13
2019-02-25T08:01:17.642Z,8.85
2019-02-25T08:02:58.328Z,8.38
2019-02-25T08:05:07.286Z,8.48
2019-02-25T08:07:00.606Z,8.43
2019-02-25T08:08:54.898Z,8.43
2019-02-25T08:10:51.528Z,8.20
2019-02-25T08:12:41.747Z,7.97
2019-02-25T08:14:53.875Z,8.90
2019-02-25T08:16:45.961Z,7.20
2019-02-25T08:18:42.597Z,8.58
2019-02-25T08:20:26.621Z,8.20
2019-02-25T08:22:32.997Z,8.75
2019-02-25T08:24:14.254Z,7.78
2019-02-25T08:26:05.594Z,7.85
2019-02-25T08:27:50.106Z,8.08
2019-02-25T08:29:39.376Z,8.03
2019-02-25T08:31:30.607Z,7.72
2019-02-25T08:33:27.506Z,7.90
2019-02-25T08:35:21.230Z,7.72
2019-02-25T08:37:54.369Z,7.87
2019-02-25T08:40:00.657Z,6.92
2019-02-25T08:41:44.065Z,6.70
2019-02-25T08:43:25.395Z,7.10
2019-02-25T08:45:22.861Z,6.63
2019-02-25T08:47:08.643Z,6.93
2019-02-25T08:48:48.376Z,6.50
2019-02-25T08:50:22.767Z,6.87
2019-02-25T08:51:57.501Z,7.30
2019-02-25T08:53:32.038Z,7.47
2019-02-25T08:55:08.283Z,7.43
2019-02-25T08:56:42.733Z,7.03
2019-02-25T08:58:17.186Z,6.97
2019-02-25T08:59:52.279Z,7.27
2019-02-25T09:01:27.006Z,7.30
2019-02-25T09:03:01.476Z,7.57
2019-02-25T09:04:35.892Z,7.77
2019-02-25T09:06:10.662Z,7.37
2019-02-25T09:07:45.189Z,6.87
2019-02-25T09:09:19.981Z,6.87
2019-02-25T09:10:55.308Z,7.60
2019-02-25T09:12:30.088Z,7.13
2019-02-25T09:14:04.562Z,6.90
2019-02-25T09:15:38.953Z,6.70
2019-02-25T09:17:13.504Z,6.90
2019-02-25T09:18:48.308Z,6.50
2019-02-25T09:20:23.402Z,6.37
2019-02-25T09:21:58.206Z,5.97
2019-02-25T09:23:33.018Z,6.90
2019-02-25T09:25:08.353Z,6.93
2019-02-25T09:26:43.150Z,6.50
2019-02-25T09:28:18.288Z,6.57
2019-02-25T09:29:53.126Z,6.27
2019-02-25T09:31:27.949Z,6.20
2019-02-25T09:33:03.008Z,6.50
2019-02-25T09:34:37.790Z,6.60
2019-02-25T09:36:12.480Z,5.73
2019-02-25T09:37:47.442Z,5.50
2019-02-25T09:39:22.285Z,6.80
2019-02-25T09:40:57.337Z,6.60
2019-02-25T09:42:32.330Z,6.60
2019-02-25T09:44:07.683Z,5.73
2019-02-25T09:45:42.469Z,6.93
2019-02-25T09:47:17.758Z,6.10
2019-02-25T09:48:52.549Z,5.80
2019-02-25T09:50:27.650Z,5.60
2019-02-25T09:52:02.473Z,5.93
2019-02-25T09:53:37.296Z,6.07
2019-02-25T09:55:12.563Z,6.37
2019-02-25T09:56:47.635Z,5.83
2019-02-25T09:58:23.029Z,6.47
2019-02-25T09:59:58.180Z,6.20
2019-02-25T10:01:33.037Z,6.30
2019-02-25T10:03:08.499Z,6.47
2019-02-25T10:04:43.282Z,6.87
2019-02-25T10:06:18.088Z,6.60
2019-02-25T10:07:52.960Z,6.63
2019-02-25T10:09:30.042Z,6.27
2019-02-25T10:11:04.374Z,6.83
2019-02-25T10:12:39.171Z,5.67
2019-02-25T10:14:14.003Z,6.07
2019-02-25T10:15:48.843Z,6.40
2019-02-25T10:17:24.195Z,6.40
2019-02-25T10:18:59.604Z,7.10
2019-02-25T10:20:34.474Z,6.90
2019-02-25T10:22:09.537Z,6.67
2019-02-25T10:23:44.568Z,6.47
2019-02-25T10:25:19.362Z,6.80
2019-02-25T10:26:54.169Z,7.33
2019-02-25T10:28:28.966Z,6.80
2019-02-25T10:30:04.401Z,6.67
2019-02-25T10:31:40.073Z,7.00
2019-02-25T10:33:16.337Z,7.33
2019-02-25T10:34:51.131Z,7.97
2019-02-25T10:36:26.028Z,7.50
2019-02-25T10:38:03.570Z,7.67
2019-02-25T10:39:38.881Z,7.67
2019-02-25T10:41:14.290Z,7.73
2019-02-25T10:42:49.163Z,7.83
2019-02-25T10:44:24.485Z,8.00
2019-02-25T10:45:59.487Z,8.33
2019-02-25T10:47:34.424Z,7.53
2019-02-25T10:49:11.571Z,8.17
2019-02-25T10:50:46.012Z,7.87
2019-02-25T10:52:20.821Z,7.80
2019-02-25T10:53:55.660Z,7.27
2019-02-25T10:55:35.113Z,7.37
2019-02-25T10:57:19.404Z,7.30
2019-02-25T10:58:55.132Z,7.17
2019-02-25T11:00:30.172Z,7.97
2019-02-25T11:02:05.421Z,7.90
2019-02-25T11:03:40.598Z,7.70
2019-02-25T11:05:15.536Z,8.40
2019-02-25T11:06:50.430Z,7.93
2019-02-25T11:08:25.765Z,7.83
2019-02-25T11:10:23.015Z,7.67
2019-02-25T11:11:59.970Z,7.77
2019-02-25T11:13:36.711Z,7.43
2019-02-25T11:15:13.733Z,9.40
2019-02-25T11:16:50.576Z,8.40
2019-02-25T11:18:26.688Z,7.30
2019-02-25T11:20:03.747Z,7.23
2019-02-25T11:21:39.951Z,7.17
2019-02-25T11:23:17.619Z,7.17
2019-02-25T11:24:53.433Z,7.03
2019-02-25T11:26:30.541Z,7.73
2019-02-25T11:28:07.025Z,7.43
2019-02-25T11:29:42.522Z,7.37
2019-02-25T11:31:22.301Z,7.27
2019-02-25T11:32:56.268Z,7.80
2019-02-25T11:34:33.677Z,7.40
2019-02-25T11:36:08.404Z,7.53
2019-02-25T11:37:43.592Z,7.30
2019-02-25T11:39:21.867Z,7.00
2019-02-25T11:40:57.154Z,7.20
2019-02-25T11:42:32.175Z,6.93
2019-02-25T11:44:07.039Z,7.30
2019-02-25T11:45:41.919Z,7.43
2019-02-25T11:47:17.101Z,7.73
2019-02-25T11:48:52.376Z,7.67
2019-02-25T11:50:27.417Z,6.80
2019-02-25T11:52:02.219Z,7.00
2019-02-25T11:53:37.305Z,7.27
2019-02-25T11:55:12.563Z,7.20
2019-02-25T11:56:47.699Z,6.80
2019-02-25T11:58:23.796Z,6.40
2019-02-25T11:59:58.896Z,6.33
2019-02-25T12:01:33.947Z,6.63
2019-02-25T12:03:10.509Z,6.50
2019-02-25T12:04:45.561Z,6.30
2019-02-25T12:06:20.601Z,6.43
2019-02-25T12:07:55.473Z,7.07
2019-02-25T12:09:31.927Z,6.43
2019-02-25T12:11:09.809Z,7.20
2019-02-25T12:12:44.777Z,6.20
2019-02-25T12:14:19.562Z,5.90
2019-02-25T12:15:54.359Z,6.67
2019-02-25T12:17:30.520Z,4.90
2019-02-25T12:19:05.615Z,3.93
2019-02-25T12:20:40.810Z,4.13
2019-02-25T12:22:15.834Z,4.17
2019-02-25T12:23:51.154Z,3.53
2019-02-25T12:25:26.165Z,3.80
2019-02-25T12:27:00.953Z,4.07
2019-02-25T12:28:36.002Z,4.00
2019-02-25T12:30:15.279Z,3.90
2019-02-25T12:31:50.130Z,3.80
2019-02-25T12:33:24.939Z,4.17
2019-02-25T12:34:59.739Z,3.80
2019-02-25T12:36:35.081Z,4.10
2019-02-25T12:38:09.871Z,4.37
2019-02-25T12:39:44.808Z,3.97
2019-02-25T12:41:19.858Z,4.10
2019-02-25T12:42:55.260Z,4.57
2019-02-25T12:44:30.373Z,4.40
2019-02-25T12:46:05.170Z,4.33
2019-02-25T12:47:40.217Z,4.73
2019-02-25T12:49:15.277Z,4.27
2019-02-25T12:50:50.303Z,5.17
2019-02-25T12:52:25.104Z,4.67
2019-02-25T12:54:00.161Z,4.20
2019-02-25T12:55:34.955Z,5.00
2019-02-25T12:57:09.959Z,4.80
2019-02-25T12:58:44.986Z,4.40
2019-02-25T13:00:19.910Z,5.00
2019-02-25T13:01:54.692Z,4.53
2019-02-25T13:03:29.610Z,5.20
2019-02-25T13:05:04.774Z,4.73
2019-02-25T13:06:40.078Z,4.33
2019-02-25T13:08:14.882Z,4.80
2019-02-25T13:09:49.934Z,4.70
2019-02-25T13:11:24.739Z,4.93
2019-02-25T13:12:59.818Z,5.00
2019-02-25T13:14:34.642Z,4.27
2019-02-25T13:16:09.417Z,4.83
2019-02-25T13:17:44.289Z,4.70
2019-02-25T13:19:19.108Z,4.70
2019-02-25T13:20:53.911Z,4.63
2019-02-25T13:22:28.309Z,4.37
2019-02-25T13:24:04.531Z,4.77
2019-02-25T13:25:39.525Z,4.73
2019-02-25T13:27:14.162Z,4.50
2019-02-25T13:28:48.982Z,4.63
2019-02-25T13:30:23.810Z,4.30
2019-02-25T13:31:58.358Z,4.77
2019-02-25T13:33:33.068Z,5.03
2019-02-25T13:35:07.763Z,5.63
2019-02-25T13:36:42.205Z,5.80
2019-02-25T13:38:16.589Z,5.03
2019-02-25T13:39:51.411Z,5.17
2019-02-25T13:41:26.153Z,4.83
2019-02-25T13:43:00.627Z,4.53
2019-02-25T13:44:35.359Z,4.83
2019-02-25T13:46:10.753Z,4.87
2019-02-25T13:47:46.050Z,4.70
2019-02-25T13:49:21.114Z,5.10
2019-02-25T13:50:55.916Z,5.03
2019-02-25T13:52:31.536Z,5.27
2019-02-25T13:54:06.337Z,4.93
2019-02-25T13:55:41.787Z,4.83
2019-02-25T13:57:16.623Z,4.53
2019-02-25T13:58:52.308Z,4.63
2019-02-25T14:00:27.594Z,4.43
2019-02-25T14:02:02.455Z,4.70
2019-02-25T14:03:37.374Z,4.63
2019-02-25T14:05:18.448Z,4.47
2019-02-25T14:06:53.381Z,4.33
2019-02-25T14:08:28.236Z,4.37
2019-02-25T14:10:03.067Z,4.60
2019-02-25T14:11:38.990Z,4.60
2019-02-25T14:13:13.806Z,3.83
2019-02-25T14:14:49.340Z,4.13
2019-02-25T14:16:24.465Z,3.77
2019-02-25T14:17:59.537Z,4.33
2019-02-25T14:19:34.633Z,3.57
2019-02-25T14:21:09.595Z,4.03
2019-02-25T14:22:44.850Z,3.97
2019-02-25T14:24:20.764Z,3.67
2019-02-25T14:25:58.785Z,3.53
2019-02-25T14:27:32.762Z,3.70
2019-02-25T14:29:07.701Z,3.80
2019-02-25T14:30:43.193Z,3.70
2019-02-25T14:32:18.383Z,3.87
2019-02-25T14:33:54.228Z,3.20
2019-02-25T14:35:29.166Z,3.80
2019-02-25T14:37:04.821Z,3.97
2019-02-25T14:38:40.246Z,4.13
2019-02-25T14:40:18.773Z,3.97
2019-02-25T14:41:54.388Z,4.10
2019-02-25T14:43:29.319Z,4.03
2019-02-25T14:45:07.198Z,3.80
2019-02-25T14:46:40.929Z,4.43
2019-02-25T14:48:20.414Z,4.27
2019-02-25T14:49:52.606Z,4.40
2019-02-25T14:51:27.788Z,4.60
2019-02-25T14:53:03.988Z,3.80
2019-02-25T14:54:39.464Z,3.47
2019-02-25T14:56:14.399Z,4.30
2019-02-25T14:57:49.186Z,4.33
2019-02-25T14:59:24.356Z,4.20
2019-02-25T15:00:59.417Z,3.93
2019-02-25T15:02:34.466Z,4.07
2019-02-25T15:04:09.372Z,4.07
2019-02-25T15:05:44.352Z,3.87
2019-02-25T15:07:19.491Z,3.97
2019-02-25T15:08:54.311Z,4.63
2019-02-25T15:10:31.536Z,4.57
2019-02-25T15:12:07.480Z,4.83
2019-02-25T15:13:43.118Z,5.17
2019-02-25T15:15:18.543Z,5.40
2019-02-25T15:16:53.891Z,4.07
2019-02-25T15:18:30.726Z,4.70
2019-02-25T15:20:06.574Z,4.20
2019-02-25T15:21:43.253Z,4.30
2019-02-25T15:23:18.976Z,4.17
2019-02-25T15:24:55.416Z,4.60
2019-02-25T15:26:32.274Z,3.93
2019-02-25T15:28:11.924Z,4.20
2019-02-25T15:29:48.584Z,4.43
2019-02-25T15:31:23.502Z,4.67
2019-02-25T15:32:59.945Z,4.80
2019-02-25T15:34:37.482Z,5.13
2019-02-25T15:36:17.542Z,5.83
2019-02-25T15:37:52.962Z,4.73
2019-02-25T15:39:28.440Z,4.40
2019-02-25T15:41:04.986Z,5.00
2019-02-25T15:42:40.993Z,5.40
2019-02-25T15:44:16.574Z,5.40
2019-02-25T15:45:51.909Z,5.60
2019-02-25T15:47:27.138Z,5.77
2019-02-25T15:49:03.033Z,6.00
2019-02-25T15:50:38.224Z,5.90
2019-02-25T15:52:14.664Z,5.30
2019-02-25T15:53:51.383Z,5.27
2019-02-25T15:55:27.586Z,5.40
2019-02-25T15:57:02.555Z,4.93
2019-02-25T15:58:37.425Z,5.10
2019-02-25T16:00:19.107Z,5.73
2019-02-25T16:01:53.363Z,5.43
2019-02-25T16:03:28.433Z,5.20
2019-02-25T16:05:04.215Z,5.03
2019-02-25T16:06:39.841Z,5.40
2019-02-25T16:08:19.079Z,5.60
2019-02-25T16:09:54.695Z,5.47
2019-02-25T16:11:29.510Z,5.40
2019-02-25T16:13:09.284Z,5.23
2019-02-25T16:14:42.265Z,4.83
2019-02-25T16:16:19.844Z,4.90
2019-02-25T16:17:54.060Z,5.30
2019-02-25T16:19:37.262Z,4.70
2019-02-25T16:21:05.306Z,5.40
2019-02-25T16:22:40.780Z,5.67
2019-02-25T16:24:16.851Z,5.63
2019-02-25T16:25:53.162Z,5.73
2019-02-25T16:27:28.706Z,5.47
2019-02-25T16:29:04.653Z,4.83
2019-02-25T16:30:40.526Z,4.87
2019-02-25T16:32:17.003Z,4.77
2019-02-25T16:33:53.412Z,5.10
2019-02-25T16:35:28.311Z,5.07
2019-02-25T16:37:04.753Z,5.10
2019-02-25T16:38:39.490Z,4.63
2019-02-25T16:40:14.257Z,5.60
2019-02-25T16:41:48.917Z,5.93
2019-02-25T16:43:23.390Z,6.23
2019-02-25T16:45:00.983Z,7.63
2019-02-25T16:46:36.541Z,7.20
2019-02-25T16:48:10.261Z,7.50
2019-02-25T16:49:44.841Z,7.30
2019-02-25T16:51:19.511Z,6.10
2019-02-25T16:52:54.139Z,6.30
2019-02-25T16:54:29.017Z,6.07
2019-02-25T16:56:05.678Z,6.23
2019-02-25T16:57:41.281Z,5.80
2019-02-25T16:59:18.394Z,5.97
2019-02-25T17:00:56.014Z,6.00
2019-02-25T17:02:33.944Z,6.20
2019-02-25T17:04:07.496Z,5.45
2019-02-25T17:05:44.807Z,5.87
2019-02-25T17:07:20.458Z,5.70
2019-02-25T17:08:55.619Z,5.90
2019-02-25T17:10:33.727Z,5.33
2019-02-25T17:12:08.920Z,5.70
2019-02-25T17:13:43.541Z,5.92
2019-02-25T17:15:18.599Z,5.85
2019-02-25T17:16:56.625Z,5.28
2019-02-25T17:18:31.242Z,5.42
2019-02-25T17:20:12.316Z,5.50
2019-02-25T17:21:46.045Z,4.90
2019-02-25T17:23:22.807Z,5.95
2019-02-25T17:25:00.155Z,5.08
2019-02-25T17:26:35.603Z,6.15
2019-02-25T17:28:14.770Z,6.85
2019-02-25T17:29:49.113Z,6.87
2019-02-25T17:31:23.770Z,6.28
2019-02-25T17:33:01.110Z,6.03
2019-02-25T17:34:36.710Z,5.90
2019-02-25T17:36:12.395Z,6.78
2019-02-25T17:37:47.989Z,6.10
2019-02-25T17:39:22.541Z,6.12
2019-02-25T17:40:59.203Z,6.05
2019-02-25T17:42:34.157Z,6.65
2019-02-25T17:44:08.932Z,6.10
2019-02-25T17:45:43.766Z,6.67
2019-02-25T17:47:24.431Z,5.95
2019-02-25T17:48:54.641Z,6.53
2019-02-25T17:50:30.250Z,6.28
2019-02-25T17:52:05.877Z,7.10
2019-02-25T17:53:40.650Z,6.62
2019-02-25T17:55:17.457Z,6.30
2019-02-25T17:56:52.022Z,6.08
2019-02-25T17:58:26.491Z,7.45
2019-02-25T18:00:00.967Z,6.72
2019-02-25T18:01:35.711Z,7.08
2019-02-25T18:03:10.647Z,7.17
2019-02-25T18:04:47.051Z,6.90
2019-02-25T18:06:22.920Z,6.83
2019-02-25T18:07:58.375Z,6.75
2019-02-25T18:09:32.883Z,6.45
2019-02-25T18:11:08.158Z,7.05
2019-02-25T18:12:43.032Z,6.83
2019-02-25T18:14:19.307Z,7.45
2019-02-25T18:15:55.672Z,6.80
2019-02-25T18:17:30.672Z,6.87
2019-02-25T18:19:05.341Z,7.08
2019-02-25T18:20:40.050Z,6.55
2019-02-25T18:22:16.571Z,6.40
2019-02-25T18:23:52.072Z,6.97
2019-02-25T18:25:27.294Z,6.42
2019-02-25T18:27:01.874Z,6.37
2019-02-25T18:28:37.418Z,6.87
2019-02-25T18:30:13.112Z,6.78
2019-02-25T18:31:48.182Z,6.72
2019-02-25T18:33:25.232Z,6.55
2019-02-25T18:35:00.531Z,6.37
2019-02-25T18:36:35.618Z,7.75
2019-02-25T18:38:10.446Z,6.83
2019-02-25T18:39:45.723Z,7.15
2019-02-25T18:41:23.167Z,6.78
2019-02-25T18:42:58.547Z,7.12
2019-02-25T18:44:34.473Z,7.08
2019-02-25T18:46:08.921Z,6.33
2019-02-25T18:47:43.461Z,6.78
2019-02-25T18:49:18.022Z,7.05
2019-02-25T18:50:55.153Z,7.10
2019-02-25T18:52:29.675Z,6.30
2019-02-25T18:54:05.581Z,6.40
2019-02-25T18:55:41.385Z,6.60
2019-02-25T18:57:16.137Z,7.17
2019-02-25T18:58:50.760Z,6.42
2019-02-25T19:00:29.673Z,6.50
2019-02-25T19:02:05.799Z,7.40
2019-02-25T19:03:41.139Z,6.60
2019-02-25T19:05:16.363Z,6.03
2019-02-25T19:06:51.567Z,6.85
2019-02-25T19:08:28.475Z,6.87
2019-02-25T19:10:03.097Z,6.72
2019-02-25T19:11:40.437Z,7.62
2019-02-25T19:13:16.122Z,6.95
2019-02-25T19:14:55.163Z,7.15
2019-02-25T19:16:29.187Z,6.58
2019-02-25T19:18:04.099Z,6.70
2019-02-25T19:19:40.257Z,7.35
2019-02-25T19:21:15.695Z,7.37
2019-02-25T19:22:51.255Z,6.40
2019-02-25T19:24:26.899Z,6.65
2019-02-25T19:26:01.795Z,7.87
2019-02-25T19:27:36.678Z,7.30
2019-02-25T19:29:12.537Z,6.78
2019-02-25T19:30:50.577Z,7.58
2019-02-25T19:32:25.471Z,7.75
2019-02-25T19:34:00.949Z,9.05
2019-02-25T19:35:39.037Z,7.95
2019-02-25T19:37:14.465Z,7.25
2019-02-25T19:38:50.289Z,6.92
2019-02-25T19:40:25.560Z,6.97
2019-02-25T19:42:00.660Z,7.87
2019-02-25T19:43:35.905Z,8.03
2019-02-25T19:45:11.358Z,7.90
2019-02-25T19:46:48.679Z,7.75
2019-02-25T19:48:27.013Z,7.72
2019-02-25T19:50:02.068Z,7.80
2019-02-25T19:51:37.423Z,9.08
2019-02-25T19:53:14.696Z,7.33
2019-02-25T19:54:50.748Z,7.75
2019-02-25T19:56:26.748Z,7.58
2019-02-25T19:58:01.595Z,8.48
2019-02-25T19:59:36.718Z,8.80
2019-02-25T20:01:12.160Z,9.20
2019-02-25T20:02:48.126Z,8.65
2019-02-25T20:04:23.695Z,8.63
2019-02-25T20:05:59.026Z,8.70
2019-02-25T20:07:35.872Z,8.60
2019-02-25T20:09:11.536Z,8.88
2019-02-25T20:10:46.557Z,9.18
2019-02-25T20:12:21.426Z,9.03
2019-02-25T20:13:56.601Z,9.23
2019-02-25T20:15:31.533Z,9.73
2019-02-25T20:17:06.606Z,9.38
2019-02-25T20:18:42.007Z,9.33
2019-02-25T20:20:17.227Z,10.03
2019-02-25T20:21:52.588Z,9.53
2019-02-25T20:23:29.237Z,9.93
2019-02-25T20:25:05.870Z,9.00
2019-02-25T20:26:41.246Z,9.23
2019-02-25T20:28:18.200Z,8.95
2019-02-25T20:29:52.989Z,9.30
2019-02-25T20:31:27.793Z,9.58
2019-02-25T20:33:03.868Z,9.65
2019-02-25T20:34:39.763Z,10.03
2019-02-25T20:36:17.215Z,9.68
2019-02-25T20:37:53.742Z,10.32
2019-02-25T20:39:28.356Z,9.48
2019-02-25T20:41:03.297Z,9.45
2019-02-25T20:42:37.808Z,10.23
2019-02-25T20:44:12.186Z,9.60
2019-02-25T20:45:48.225Z,9.83
2019-02-25T20:47:23.315Z,9.80
2019-02-25T20:48:59.829Z,10.23
2019-02-25T20:50:34.199Z,11.57
2019-02-25T20:52:09.015Z,11.35
2019-02-25T20:53:43.479Z,10.93
2019-02-25T20:55:18.021Z,10.48
2019-02-25T20:56:53.280Z,9.78
2019-02-25T20:58:29.230Z,10.50
2019-02-25T21:00:04.315Z,10.30
2019-02-25T21:01:42.258Z,11.20
2019-02-25T21:03:16.643Z,11.18
2019-02-25T21:04:52.235Z,10.18
2019-02-25T21:06:26.846Z,11.40
2019-02-25T21:08:01.555Z,10.50
2019-02-25T21:09:37.748Z,10.85
2019-02-25T21:11:13.362Z,9.55
2019-02-25T21:12:50.179Z,10.23
2019-02-25T21:14:24.943Z,10.60
2019-02-25T21:16:00.872Z,10.75
2019-02-25T21:17:37.767Z,11.43
2019-02-25T21:19:14.791Z,11.25
2019-02-25T21:20:49.324Z,10.88
2019-02-25T21:22:27.111Z,10.98